sensor_id;sensor_type;location;lat;lon;timestamp;P1;durP1;ratioP1;P2;durP2;ratioP2
48951;SDS011;34758;42.148;24.744;2023-03-08T00:01:15;29.33;;;16.75;;
48951;SDS011;34758;42.148;24.744;2023-03-08T00:03:46;29.45;;;16.55;;
48951;SDS011;34758;42.148;24.744;2023-03-08T00:06:13;27.40;;;17.77;;
48951;SDS011;34758;42.148;24.744;2023-03-08T00:08:43;26.40;;;17.00;;
48951;SDS011;34758;42.148;24.744;2023-03-08T00:11:10;28.23;;;17.33;;
48951;SDS011;34758;42.148;24.744;2023-03-08T00:13:38;24.55;;;16.50;;
48951;SDS011;34758;42.148;24.744;2023-03-08T00:16:08;26.88;;;16.73;;
48951;SDS011;34758;42.148;24.744;2023-03-08T00:18:36;27.77;;;17.58;;
48951;SDS011;34758;42.148;24.744;2023-03-08T00:21:05;25.75;;;16.70;;
48951;SDS011;34758;42.148;24.744;2023-03-08T00:23:34;33.67;;;18.38;;
48951;SDS011;34758;42.148;24.744;2023-03-08T00:26:01;37.20;;;19.77;;
48951;SDS011;34758;42.148;24.744;2023-03-08T00:28:28;33.03;;;20.55;;
48951;SDS011;34758;42.148;24.744;2023-03-08T00:30:55;38.00;;;21.38;;
48951;SDS011;34758;42.148;24.744;2023-03-08T00:33:23;35.97;;;21.08;;
48951;SDS011;34758;42.148;24.744;2023-03-08T00:35:54;37.28;;;20.52;;
48951;SDS011;34758;42.148;24.744;2023-03-08T00:38:27;32.13;;;18.85;;
48951;SDS011;34758;42.148;24.744;2023-03-08T00:40:55;28.15;;;19.20;;
48951;SDS011;34758;42.148;24.744;2023-03-08T00:43:22;26.83;;;18.05;;
48951;SDS011;34758;42.148;24.744;2023-03-08T00:45:49;27.73;;;19.50;;
48951;SDS011;34758;42.148;24.744;2023-03-08T00:48:20;31.52;;;19.42;;
48951;SDS011;34758;42.148;24.744;2023-03-08T00:50:47;33.83;;;20.63;;
48951;SDS011;34758;42.148;24.744;2023-03-08T00:53:15;30.20;;;20.42;;
48951;SDS011;34758;42.148;24.744;2023-03-08T00:55:49;33.30;;;21.08;;
48951;SDS011;34758;42.148;24.744;2023-03-08T00:58:17;37.03;;;20.45;;
48951;SDS011;34758;42.148;24.744;2023-03-08T01:00:44;33.97;;;20.08;;
48951;SDS011;34758;42.148;24.744;2023-03-08T01:03:13;34.45;;;19.40;;
48951;SDS011;34758;42.148;24.744;2023-03-08T01:05:41;36.20;;;20.67;;
48951;SDS011;34758;42.148;24.744;2023-03-08T01:08:10;35.17;;;18.90;;
48951;SDS011;34758;42.148;24.744;2023-03-08T01:10:38;37.45;;;19.77;;
48951;SDS011;34758;42.148;24.744;2023-03-08T01:13:08;32.28;;;19.55;;
48951;SDS011;34758;42.148;24.744;2023-03-08T01:15:35;32.60;;;19.75;;
48951;SDS011;34758;42.148;24.744;2023-03-08T01:18:03;33.85;;;19.92;;
48951;SDS011;34758;42.148;24.744;2023-03-08T01:20:31;35.78;;;20.10;;
48951;SDS011;34758;42.148;24.744;2023-03-08T01:22:59;34.70;;;19.15;;
48951;SDS011;34758;42.148;24.744;2023-03-08T01:25:26;32.90;;;19.70;;
48951;SDS011;34758;42.148;24.744;2023-03-08T01:27:54;35.58;;;18.92;;
48951;SDS011;34758;42.148;24.744;2023-03-08T01:30:26;30.42;;;19.25;;
48951;SDS011;34758;42.148;24.744;2023-03-08T01:32:53;29.50;;;19.50;;
48951;SDS011;34758;42.148;24.744;2023-03-08T01:35:21;30.27;;;18.50;;
48951;SDS011;34758;42.148;24.744;2023-03-08T01:37:49;29.73;;;19.38;;
48951;SDS011;34758;42.148;24.744;2023-03-08T01:40:19;28.90;;;18.80;;
48951;SDS011;34758;42.148;24.744;2023-03-08T01:42:46;23.15;;;16.35;;
48951;SDS011;34758;42.148;24.744;2023-03-08T01:48:18;27.27;;;18.90;;
48951;SDS011;34758;42.148;24.744;2023-03-08T01:50:48;24.80;;;17.48;;
48951;SDS011;34758;42.148;24.744;2023-03-08T01:53:14;26.50;;;17.85;;
48951;SDS011;34758;42.148;24.744;2023-03-08T01:55:42;29.27;;;18.30;;
48951;SDS011;34758;42.148;24.744;2023-03-08T01:58:09;26.88;;;17.85;;
48951;SDS011;34758;42.148;24.744;2023-03-08T02:00:39;29.48;;;17.45;;
48951;SDS011;34758;42.148;24.744;2023-03-08T02:03:10;27.27;;;17.63;;
48951;SDS011;34758;42.148;24.744;2023-03-08T02:05:42;27.48;;;16.98;;
48951;SDS011;34758;42.148;24.744;2023-03-08T02:08:09;28.42;;;16.58;;
48951;SDS011;34758;42.148;24.744;2023-03-08T02:10:36;26.45;;;16.83;;
48951;SDS011;34758;42.148;24.744;2023-03-08T02:13:05;24.50;;;17.08;;
48951;SDS011;34758;42.148;24.744;2023-03-08T02:15:35;23.98;;;16.08;;
48951;SDS011;34758;42.148;24.744;2023-03-08T02:18:03;26.20;;;16.65;;
48951;SDS011;34758;42.148;24.744;2023-03-08T02:20:30;27.13;;;16.00;;
48951;SDS011;34758;42.148;24.744;2023-03-08T02:23:07;24.67;;;15.77;;
48951;SDS011;34758;42.148;24.744;2023-03-08T02:25:35;25.40;;;15.38;;
48951;SDS011;34758;42.148;24.744;2023-03-08T02:28:05;25.15;;;15.15;;
48951;SDS011;34758;42.148;24.744;2023-03-08T02:30:33;21.55;;;15.05;;
48951;SDS011;34758;42.148;24.744;2023-03-08T02:33:01;23.52;;;16.15;;
48951;SDS011;34758;42.148;24.744;2023-03-08T02:35:29;21.67;;;14.73;;
48951;SDS011;34758;42.148;24.744;2023-03-08T02:37:59;29.75;;;17.27;;
48951;SDS011;34758;42.148;24.744;2023-03-08T02:40:28;21.73;;;14.38;;
48951;SDS011;34758;42.148;24.744;2023-03-08T02:42:55;22.00;;;12.13;;
48951;SDS011;34758;42.148;24.744;2023-03-08T02:45:22;19.05;;;11.25;;
48951;SDS011;34758;42.148;24.744;2023-03-08T02:47:50;20.15;;;11.88;;
48951;SDS011;34758;42.148;24.744;2023-03-08T02:50:17;16.55;;;11.95;;
48951;SDS011;34758;42.148;24.744;2023-03-08T02:52:45;19.45;;;12.13;;
48951;SDS011;34758;42.148;24.744;2023-03-08T02:55:12;18.88;;;11.82;;
48951;SDS011;34758;42.148;24.744;2023-03-08T02:57:41;19.05;;;11.00;;
48951;SDS011;34758;42.148;24.744;2023-03-08T03:00:10;17.85;;;11.73;;
48951;SDS011;34758;42.148;24.744;2023-03-08T03:02:38;17.45;;;10.90;;
48951;SDS011;34758;42.148;24.744;2023-03-08T03:05:06;21.58;;;11.10;;
48951;SDS011;34758;42.148;24.744;2023-03-08T03:07:38;17.38;;;10.48;;
48951;SDS011;34758;42.148;24.744;2023-03-08T03:10:10;14.27;;;10.10;;
48951;SDS011;34758;42.148;24.744;2023-03-08T03:12:38;15.60;;;10.35;;
48951;SDS011;34758;42.148;24.744;2023-03-08T03:15:07;16.02;;;10.55;;
48951;SDS011;34758;42.148;24.744;2023-03-08T03:17:36;15.45;;;9.80;;
48951;SDS011;34758;42.148;24.744;2023-03-08T03:20:04;16.92;;;10.95;;
48951;SDS011;34758;42.148;24.744;2023-03-08T03:22:36;17.50;;;10.23;;
48951;SDS011;34758;42.148;24.744;2023-03-08T03:25:03;16.05;;;9.65;;
48951;SDS011;34758;42.148;24.744;2023-03-08T03:27:31;15.63;;;9.98;;
48951;SDS011;34758;42.148;24.744;2023-03-08T03:29:58;16.65;;;10.48;;
48951;SDS011;34758;42.148;24.744;2023-03-08T03:32:31;17.25;;;9.60;;
48951;SDS011;34758;42.148;24.744;2023-03-08T03:35:03;14.68;;;9.88;;
48951;SDS011;34758;42.148;24.744;2023-03-08T03:37:32;14.70;;;9.55;;
48951;SDS011;34758;42.148;24.744;2023-03-08T03:40:00;19.20;;;11.15;;
48951;SDS011;34758;42.148;24.744;2023-03-08T03:42:29;15.45;;;10.23;;
48951;SDS011;34758;42.148;24.744;2023-03-08T03:44:57;15.38;;;9.88;;
48951;SDS011;34758;42.148;24.744;2023-03-08T03:47:27;14.40;;;9.82;;
48951;SDS011;34758;42.148;24.744;2023-03-08T03:49:55;14.02;;;9.15;;
48951;SDS011;34758;42.148;24.744;2023-03-08T03:52:24;14.50;;;10.05;;
48951;SDS011;34758;42.148;24.744;2023-03-08T03:54:51;15.77;;;10.80;;
48951;SDS011;34758;42.148;24.744;2023-03-08T03:57:19;18.23;;;11.02;;
48951;SDS011;34758;42.148;24.744;2023-03-08T03:59:49;17.00;;;10.90;;
48951;SDS011;34758;42.148;24.744;2023-03-08T04:02:16;17.98;;;11.52;;
48951;SDS011;34758;42.148;24.744;2023-03-08T04:04:47;17.95;;;11.48;;
48951;SDS011;34758;42.148;24.744;2023-03-08T04:07:16;18.33;;;11.18;;
48951;SDS011;34758;42.148;24.744;2023-03-08T04:09:43;17.80;;;12.40;;
48951;SDS011;34758;42.148;24.744;2023-03-08T04:12:11;19.85;;;11.43;;
48951;SDS011;34758;42.148;24.744;2023-03-08T04:14:41;17.20;;;11.55;;
48951;SDS011;34758;42.148;24.744;2023-03-08T04:17:09;20.20;;;11.93;;
48951;SDS011;34758;42.148;24.744;2023-03-08T04:19:36;16.38;;;11.30;;
48951;SDS011;34758;42.148;24.744;2023-03-08T04:22:03;17.27;;;11.50;;
48951;SDS011;34758;42.148;24.744;2023-03-08T04:24:40;20.42;;;12.25;;
48951;SDS011;34758;42.148;24.744;2023-03-08T04:27:23;15.57;;;11.52;;
48951;SDS011;34758;42.148;24.744;2023-03-08T04:29:50;18.90;;;12.07;;
48951;SDS011;34758;42.148;24.744;2023-03-08T04:32:19;21.27;;;11.98;;
48951;SDS011;34758;42.148;24.744;2023-03-08T04:34:47;17.33;;;11.38;;
48951;SDS011;34758;42.148;24.744;2023-03-08T04:37:14;20.77;;;12.65;;
48951;SDS011;34758;42.148;24.744;2023-03-08T04:39:45;18.88;;;11.70;;
48951;SDS011;34758;42.148;24.744;2023-03-08T04:42:13;20.77;;;12.15;;
48951;SDS011;34758;42.148;24.744;2023-03-08T04:44:40;20.70;;;11.98;;
48951;SDS011;34758;42.148;24.744;2023-03-08T04:47:07;18.17;;;11.18;;
48951;SDS011;34758;42.148;24.744;2023-03-08T04:49:37;17.40;;;10.93;;
48951;SDS011;34758;42.148;24.744;2023-03-08T04:52:04;22.45;;;12.13;;
48951;SDS011;34758;42.148;24.744;2023-03-08T04:54:32;17.77;;;10.57;;
48951;SDS011;34758;42.148;24.744;2023-03-08T04:57:02;19.10;;;11.68;;
48951;SDS011;34758;42.148;24.744;2023-03-08T04:59:36;17.95;;;11.77;;
48951;SDS011;34758;42.148;24.744;2023-03-08T05:02:03;15.77;;;10.80;;
48951;SDS011;34758;42.148;24.744;2023-03-08T05:04:31;18.05;;;11.45;;
48951;SDS011;34758;42.148;24.744;2023-03-08T05:06:58;21.52;;;11.65;;
48951;SDS011;34758;42.148;24.744;2023-03-08T05:09:27;18.30;;;12.00;;
48951;SDS011;34758;42.148;24.744;2023-03-08T05:11:55;17.52;;;11.43;;
48951;SDS011;34758;42.148;24.744;2023-03-08T05:14:26;21.23;;;11.05;;
48951;SDS011;34758;42.148;24.744;2023-03-08T05:16:54;17.02;;;10.63;;
48951;SDS011;34758;42.148;24.744;2023-03-08T05:19:21;15.77;;;10.02;;
48951;SDS011;34758;42.148;24.744;2023-03-08T05:21:49;14.90;;;9.77;;
48951;SDS011;34758;42.148;24.744;2023-03-08T05:24:16;40.40;;;21.20;;
48951;SDS011;34758;42.148;24.744;2023-03-08T05:26:44;44.33;;;24.95;;
48951;SDS011;34758;42.148;24.744;2023-03-08T05:29:12;21.35;;;13.07;;
48951;SDS011;34758;42.148;24.744;2023-03-08T05:31:42;19.52;;;11.25;;
48951;SDS011;34758;42.148;24.744;2023-03-08T05:34:09;14.95;;;11.48;;
48951;SDS011;34758;42.148;24.744;2023-03-08T05:36:37;18.73;;;11.18;;
48951;SDS011;34758;42.148;24.744;2023-03-08T05:39:07;14.43;;;9.85;;
48951;SDS011;34758;42.148;24.744;2023-03-08T05:41:37;18.70;;;10.65;;
48951;SDS011;34758;42.148;24.744;2023-03-08T05:44:05;14.43;;;9.88;;
48951;SDS011;34758;42.148;24.744;2023-03-08T05:46:33;15.98;;;11.32;;
48951;SDS011;34758;42.148;24.744;2023-03-08T05:49:03;18.83;;;12.18;;
48951;SDS011;34758;42.148;24.744;2023-03-08T05:51:31;18.58;;;11.90;;
48951;SDS011;34758;42.148;24.744;2023-03-08T05:53:58;21.40;;;12.70;;
48951;SDS011;34758;42.148;24.744;2023-03-08T05:56:26;18.52;;;13.40;;
48951;SDS011;34758;42.148;24.744;2023-03-08T05:58:56;18.20;;;10.30;;
48951;SDS011;34758;42.148;24.744;2023-03-08T06:01:24;15.23;;;9.80;;
48951;SDS011;34758;42.148;24.744;2023-03-08T06:03:52;14.02;;;9.55;;
48951;SDS011;34758;42.148;24.744;2023-03-08T06:06:22;15.85;;;9.05;;
48951;SDS011;34758;42.148;24.744;2023-03-08T06:08:51;14.93;;;10.07;;
48951;SDS011;34758;42.148;24.744;2023-03-08T06:11:18;12.30;;;8.95;;
48951;SDS011;34758;42.148;24.744;2023-03-08T06:13:45;12.23;;;8.43;;
48951;SDS011;34758;42.148;24.744;2023-03-08T06:16:13;22.40;;;9.02;;
48951;SDS011;34758;42.148;24.744;2023-03-08T06:18:41;15.95;;;8.25;;
48951;SDS011;34758;42.148;24.744;2023-03-08T06:21:11;10.20;;;6.68;;
48951;SDS011;34758;42.148;24.744;2023-03-08T06:23:44;12.75;;;7.55;;
48951;SDS011;34758;42.148;24.744;2023-03-08T06:26:16;13.32;;;6.85;;
48951;SDS011;34758;42.148;24.744;2023-03-08T06:28:43;14.50;;;7.32;;
48951;SDS011;34758;42.148;24.744;2023-03-08T06:31:12;15.30;;;7.18;;
48951;SDS011;34758;42.148;24.744;2023-03-08T06:33:40;13.35;;;7.18;;
48951;SDS011;34758;42.148;24.744;2023-03-08T06:36:08;10.80;;;6.55;;
48951;SDS011;34758;42.148;24.744;2023-03-08T06:38:41;12.98;;;7.35;;
48951;SDS011;34758;42.148;24.744;2023-03-08T06:41:14;10.85;;;7.22;;
48951;SDS011;34758;42.148;24.744;2023-03-08T06:43:47;11.55;;;6.28;;
48951;SDS011;34758;42.148;24.744;2023-03-08T06:46:16;10.13;;;7.03;;
48951;SDS011;34758;42.148;24.744;2023-03-08T06:48:44;14.30;;;7.22;;
48951;SDS011;34758;42.148;24.744;2023-03-08T06:51:12;13.30;;;6.88;;
48951;SDS011;34758;42.148;24.744;2023-03-08T06:53:43;14.15;;;7.07;;
48951;SDS011;34758;42.148;24.744;2023-03-08T06:56:13;13.65;;;7.80;;
48951;SDS011;34758;42.148;24.744;2023-03-08T06:58:49;11.00;;;6.90;;
48951;SDS011;34758;42.148;24.744;2023-03-08T07:01:17;12.07;;;5.88;;
48951;SDS011;34758;42.148;24.744;2023-03-08T07:03:46;10.05;;;6.93;;
48951;SDS011;34758;42.148;24.744;2023-03-08T07:06:15;12.80;;;5.18;;
48951;SDS011;34758;42.148;24.744;2023-03-08T07:08:46;9.98;;;6.25;;
48951;SDS011;34758;42.148;24.744;2023-03-08T07:11:14;8.85;;;5.13;;
48951;SDS011;34758;42.148;24.744;2023-03-08T07:13:41;10.90;;;5.53;;
48951;SDS011;34758;42.148;24.744;2023-03-08T07:16:11;10.55;;;5.43;;
48951;SDS011;34758;42.148;24.744;2023-03-08T07:18:38;8.77;;;5.68;;
48951;SDS011;34758;42.148;24.744;2023-03-08T07:21:06;11.73;;;5.80;;
48951;SDS011;34758;42.148;24.744;2023-03-08T07:23:35;9.50;;;6.00;;
48951;SDS011;34758;42.148;24.744;2023-03-08T07:26:03;11.45;;;7.00;;
48951;SDS011;34758;42.148;24.744;2023-03-08T07:28:33;12.25;;;5.85;;
48951;SDS011;34758;42.148;24.744;2023-03-08T07:31:00;9.73;;;5.90;;
48951;SDS011;34758;42.148;24.744;2023-03-08T07:33:27;9.05;;;5.28;;
48951;SDS011;34758;42.148;24.744;2023-03-08T07:35:54;9.35;;;5.43;;
48951;SDS011;34758;42.148;24.744;2023-03-08T07:38:26;13.98;;;6.43;;
48951;SDS011;34758;42.148;24.744;2023-03-08T07:40:55;15.50;;;8.48;;
48951;SDS011;34758;42.148;24.744;2023-03-08T07:43:22;11.77;;;6.40;;
48951;SDS011;34758;42.148;24.744;2023-03-08T07:45:52;10.40;;;6.60;;
48951;SDS011;34758;42.148;24.744;2023-03-08T07:48:19;11.20;;;5.82;;
48951;SDS011;34758;42.148;24.744;2023-03-08T07:50:47;8.65;;;6.47;;
48951;SDS011;34758;42.148;24.744;2023-03-08T07:53:15;8.63;;;5.38;;
48951;SDS011;34758;42.148;24.744;2023-03-08T07:55:42;20.88;;;12.30;;
48951;SDS011;34758;42.148;24.744;2023-03-08T07:58:10;12.90;;;7.68;;
48951;SDS011;34758;42.148;24.744;2023-03-08T08:00:39;20.50;;;10.75;;
48951;SDS011;34758;42.148;24.744;2023-03-08T08:03:08;11.40;;;7.47;;
48951;SDS011;34758;42.148;24.744;2023-03-08T08:05:36;14.95;;;7.40;;
48951;SDS011;34758;42.148;24.744;2023-03-08T08:08:05;10.00;;;5.75;;
48951;SDS011;34758;42.148;24.744;2023-03-08T08:10:33;13.73;;;6.00;;
48951;SDS011;34758;42.148;24.744;2023-03-08T08:13:00;10.52;;;5.40;;
48951;SDS011;34758;42.148;24.744;2023-03-08T08:15:28;11.07;;;6.43;;
48951;SDS011;34758;42.148;24.744;2023-03-08T08:17:55;11.85;;;6.30;;
48951;SDS011;34758;42.148;24.744;2023-03-08T08:20:24;10.13;;;6.70;;
48951;SDS011;34758;42.148;24.744;2023-03-08T08:22:51;9.88;;;5.95;;
48951;SDS011;34758;42.148;24.744;2023-03-08T08:25:19;13.15;;;6.95;;
48951;SDS011;34758;42.148;24.744;2023-03-08T08:27:49;14.60;;;6.05;;
48951;SDS011;34758;42.148;24.744;2023-03-08T08:30:17;9.77;;;6.32;;
48951;SDS011;34758;42.148;24.744;2023-03-08T08:32:46;12.75;;;6.45;;
48951;SDS011;34758;42.148;24.744;2023-03-08T08:35:14;10.50;;;5.40;;
48951;SDS011;34758;42.148;24.744;2023-03-08T08:37:44;14.40;;;6.13;;
48951;SDS011;34758;42.148;24.744;2023-03-08T08:40:12;10.60;;;6.03;;
48951;SDS011;34758;42.148;24.744;2023-03-08T08:42:40;10.00;;;5.15;;
48951;SDS011;34758;42.148;24.744;2023-03-08T08:45:08;10.55;;;5.78;;
48951;SDS011;34758;42.148;24.744;2023-03-08T08:47:37;11.45;;;6.05;;
48951;SDS011;34758;42.148;24.744;2023-03-08T08:50:04;11.68;;;5.93;;
48951;SDS011;34758;42.148;24.744;2023-03-08T08:52:33;12.30;;;6.70;;
48951;SDS011;34758;42.148;24.744;2023-03-08T08:55:02;11.18;;;5.10;;
48951;SDS011;34758;42.148;24.744;2023-03-08T08:57:31;5.50;;;3.83;;
48951;SDS011;34758;42.148;24.744;2023-03-08T08:59:59;8.27;;;4.70;;
48951;SDS011;34758;42.148;24.744;2023-03-08T09:02:29;6.25;;;3.83;;
48951;SDS011;34758;42.148;24.744;2023-03-08T09:04:56;3.97;;;3.40;;
48951;SDS011;34758;42.148;24.744;2023-03-08T09:07:23;5.10;;;3.60;;
48951;SDS011;34758;42.148;24.744;2023-03-08T09:09:58;6.28;;;3.38;;
48951;SDS011;34758;42.148;24.744;2023-03-08T09:12:27;6.32;;;3.35;;
48951;SDS011;34758;42.148;24.744;2023-03-08T09:14:56;9.98;;;3.83;;
48951;SDS011;34758;42.148;24.744;2023-03-08T09:17:24;8.43;;;3.20;;
48951;SDS011;34758;42.148;24.744;2023-03-08T09:19:52;8.60;;;3.85;;
48951;SDS011;34758;42.148;24.744;2023-03-08T09:24:52;5.25;;;3.88;;
48951;SDS011;34758;42.148;24.744;2023-03-08T09:27:20;3.92;;;2.53;;
48951;SDS011;34758;42.148;24.744;2023-03-08T09:29:50;4.07;;;2.95;;
48951;SDS011;34758;42.148;24.744;2023-03-08T09:32:17;8.77;;;3.85;;
48951;SDS011;34758;42.148;24.744;2023-03-08T09:34:44;4.80;;;3.03;;
48951;SDS011;34758;42.148;24.744;2023-03-08T09:37:12;5.93;;;3.30;;
48951;SDS011;34758;42.148;24.744;2023-03-08T09:39:40;4.68;;;3.40;;
48951;SDS011;34758;42.148;24.744;2023-03-08T09:42:14;5.75;;;2.75;;
48951;SDS011;34758;42.148;24.744;2023-03-08T09:44:54;4.88;;;2.85;;
48951;SDS011;34758;42.148;24.744;2023-03-08T09:47:44;6.07;;;3.22;;
48951;SDS011;34758;42.148;24.744;2023-03-08T09:50:18;2.22;;;1.90;;
48951;SDS011;34758;42.148;24.744;2023-03-08T09:52:52;3.60;;;2.38;;
48951;SDS011;34758;42.148;24.744;2023-03-08T09:55:21;5.30;;;3.40;;
48951;SDS011;34758;42.148;24.744;2023-03-08T09:57:55;7.22;;;3.15;;
48951;SDS011;34758;42.148;24.744;2023-03-08T10:00:25;6.20;;;3.40;;
48951;SDS011;34758;42.148;24.744;2023-03-08T10:02:59;6.40;;;3.15;;
48951;SDS011;34758;42.148;24.744;2023-03-08T10:05:39;7.85;;;3.35;;
48951;SDS011;34758;42.148;24.744;2023-03-08T10:08:10;7.93;;;3.38;;
48951;SDS011;34758;42.148;24.744;2023-03-08T10:10:45;6.88;;;3.58;;
48951;SDS011;34758;42.148;24.744;2023-03-08T10:13:24;5.93;;;4.03;;
48951;SDS011;34758;42.148;24.744;2023-03-08T10:16:01;7.30;;;3.85;;
48951;SDS011;34758;42.148;24.744;2023-03-08T10:18:33;6.93;;;3.55;;
48951;SDS011;34758;42.148;24.744;2023-03-08T10:21:03;4.80;;;3.88;;
48951;SDS011;34758;42.148;24.744;2023-03-08T10:23:31;5.38;;;3.30;;
48951;SDS011;34758;42.148;24.744;2023-03-08T10:25:59;4.68;;;2.88;;
48951;SDS011;34758;42.148;24.744;2023-03-08T10:28:29;5.07;;;2.05;;
48951;SDS011;34758;42.148;24.744;2023-03-08T10:30:59;4.65;;;2.28;;
48951;SDS011;34758;42.148;24.744;2023-03-08T10:33:30;6.25;;;2.58;;
48951;SDS011;34758;42.148;24.744;2023-03-08T10:35:58;3.53;;;3.03;;
48951;SDS011;34758;42.148;24.744;2023-03-08T10:38:29;5.72;;;2.88;;
48951;SDS011;34758;42.148;24.744;2023-03-08T10:41:01;4.90;;;2.88;;
48951;SDS011;34758;42.148;24.744;2023-03-08T10:43:30;5.43;;;2.60;;
48951;SDS011;34758;42.148;24.744;2023-03-08T10:46:02;5.05;;;3.05;;
48951;SDS011;34758;42.148;24.744;2023-03-08T10:48:30;3.63;;;3.00;;
48951;SDS011;34758;42.148;24.744;2023-03-08T10:50:58;3.72;;;2.47;;
48951;SDS011;34758;42.148;24.744;2023-03-08T10:53:28;3.90;;;2.65;;
48951;SDS011;34758;42.148;24.744;2023-03-08T10:55:56;2.58;;;1.92;;
48951;SDS011;34758;42.148;24.744;2023-03-08T10:58:28;4.35;;;1.83;;
48951;SDS011;34758;42.148;24.744;2023-03-08T11:01:02;4.28;;;1.65;;
48951;SDS011;34758;42.148;24.744;2023-03-08T11:03:32;2.85;;;1.55;;
48951;SDS011;34758;42.148;24.744;2023-03-08T11:06:01;3.22;;;2.00;;
48951;SDS011;34758;42.148;24.744;2023-03-08T11:08:30;10.02;;;1.67;;
48951;SDS011;34758;42.148;24.744;2023-03-08T11:10:59;3.03;;;1.67;;
48951;SDS011;34758;42.148;24.744;2023-03-08T11:13:28;5.28;;;1.52;;
48951;SDS011;34758;42.148;24.744;2023-03-08T11:16:00;3.50;;;1.60;;
48951;SDS011;34758;42.148;24.744;2023-03-08T11:18:40;2.40;;;1.90;;
48951;SDS011;34758;42.148;24.744;2023-03-08T11:21:16;3.75;;;1.90;;
48951;SDS011;34758;42.148;24.744;2023-03-08T11:23:52;2.47;;;1.45;;
48951;SDS011;34758;42.148;24.744;2023-03-08T11:26:26;3.40;;;1.42;;
48951;SDS011;34758;42.148;24.744;2023-03-08T11:29:02;3.90;;;1.20;;
48951;SDS011;34758;42.148;24.744;2023-03-08T11:31:34;3.00;;;1.10;;
48951;SDS011;34758;42.148;24.744;2023-03-08T11:37:15;2.08;;;1.10;;
48951;SDS011;34758;42.148;24.744;2023-03-08T11:39:49;5.82;;;1.25;;
48951;SDS011;34758;42.148;24.744;2023-03-08T11:42:22;3.83;;;0.65;;
48951;SDS011;34758;42.148;24.744;2023-03-08T11:44:58;2.45;;;1.23;;
48951;SDS011;34758;42.148;24.744;2023-03-08T11:47:40;1.85;;;0.75;;
48951;SDS011;34758;42.148;24.744;2023-03-08T11:50:30;1.77;;;0.90;;
48951;SDS011;34758;42.148;24.744;2023-03-08T11:53:09;2.22;;;0.95;;
48951;SDS011;34758;42.148;24.744;2023-03-08T11:55:46;4.78;;;1.10;;
48951;SDS011;34758;42.148;24.744;2023-03-08T11:58:21;2.00;;;0.82;;
48951;SDS011;34758;42.148;24.744;2023-03-08T12:03:22;1.50;;;0.93;;
48951;SDS011;34758;42.148;24.744;2023-03-08T12:06:01;2.10;;;0.87;;
48951;SDS011;34758;42.148;24.744;2023-03-08T12:08:34;1.67;;;0.90;;
48951;SDS011;34758;42.148;24.744;2023-03-08T12:11:04;2.25;;;0.80;;
48951;SDS011;34758;42.148;24.744;2023-03-08T12:16:05;4.60;;;1.58;;
48951;SDS011;34758;42.148;24.744;2023-03-08T12:18:39;2.30;;;1.27;;
48951;SDS011;34758;42.148;24.744;2023-03-08T12:21:13;3.75;;;1.30;;
48951;SDS011;34758;42.148;24.744;2023-03-08T12:23:47;3.30;;;1.27;;
48951;SDS011;34758;42.148;24.744;2023-03-08T12:26:20;2.05;;;1.27;;
48951;SDS011;34758;42.148;24.744;2023-03-08T12:28:49;3.05;;;1.48;;
48951;SDS011;34758;42.148;24.744;2023-03-08T12:31:21;3.33;;;1.57;;
48951;SDS011;34758;42.148;24.744;2023-03-08T12:33:57;2.33;;;1.23;;
48951;SDS011;34758;42.148;24.744;2023-03-08T12:36:35;4.68;;;1.13;;
48951;SDS011;34758;42.148;24.744;2023-03-08T12:39:06;3.00;;;1.05;;
48951;SDS011;34758;42.148;24.744;2023-03-08T12:41:55;2.65;;;1.33;;
48951;SDS011;34758;42.148;24.744;2023-03-08T12:44:24;2.53;;;0.90;;
48951;SDS011;34758;42.148;24.744;2023-03-08T12:46:55;1.73;;;1.02;;
48951;SDS011;34758;42.148;24.744;2023-03-08T12:49:27;1.55;;;0.68;;
48951;SDS011;34758;42.148;24.744;2023-03-08T12:52:00;1.55;;;0.77;;
48951;SDS011;34758;42.148;24.744;2023-03-08T12:54:30;2.05;;;0.68;;
48951;SDS011;34758;42.148;24.744;2023-03-08T12:57:00;1.13;;;0.60;;
48951;SDS011;34758;42.148;24.744;2023-03-08T12:59:33;1.52;;;0.63;;
48951;SDS011;34758;42.148;24.744;2023-03-08T13:10:32;2.05;;;0.65;;
48951;SDS011;34758;42.148;24.744;2023-03-08T13:13:19;1.52;;;0.82;;
48951;SDS011;34758;42.148;24.744;2023-03-08T13:15:49;2.55;;;0.63;;
48951;SDS011;34758;42.148;24.744;2023-03-08T13:18:17;2.08;;;0.88;;
48951;SDS011;34758;42.148;24.744;2023-03-08T13:20:59;2.17;;;0.60;;
48951;SDS011;34758;42.148;24.744;2023-03-08T13:23:32;4.22;;;0.85;;
48951;SDS011;34758;42.148;24.744;2023-03-08T13:26:05;2.33;;;0.77;;
48951;SDS011;34758;42.148;24.744;2023-03-08T13:28:44;1.83;;;0.75;;
48951;SDS011;34758;42.148;24.744;2023-03-08T13:31:12;2.17;;;1.45;;
48951;SDS011;34758;42.148;24.744;2023-03-08T13:33:42;5.70;;;2.80;;
48951;SDS011;34758;42.148;24.744;2023-03-08T13:36:16;2.35;;;0.93;;
48951;SDS011;34758;42.148;24.744;2023-03-08T13:38:54;2.20;;;0.80;;
48951;SDS011;34758;42.148;24.744;2023-03-08T13:41:31;2.90;;;1.25;;
48951;SDS011;34758;42.148;24.744;2023-03-08T13:44:02;1.67;;;1.30;;
48951;SDS011;34758;42.148;24.744;2023-03-08T13:46:31;3.25;;;0.98;;
48951;SDS011;34758;42.148;24.744;2023-03-08T13:48:59;1.75;;;0.63;;
48951;SDS011;34758;42.148;24.744;2023-03-08T13:51:28;3.70;;;0.70;;
48951;SDS011;34758;42.148;24.744;2023-03-08T13:53:55;1.42;;;0.57;;
48951;SDS011;34758;42.148;24.744;2023-03-08T13:56:24;3.05;;;1.15;;
48951;SDS011;34758;42.148;24.744;2023-03-08T13:58:52;4.28;;;1.25;;
48951;SDS011;34758;42.148;24.744;2023-03-08T14:01:20;1.60;;;0.90;;
48951;SDS011;34758;42.148;24.744;2023-03-08T14:03:50;5.15;;;0.90;;
48951;SDS011;34758;42.148;24.744;2023-03-08T14:06:21;1.95;;;0.75;;
48951;SDS011;34758;42.148;24.744;2023-03-08T14:08:54;2.63;;;0.73;;
48951;SDS011;34758;42.148;24.744;2023-03-08T14:11:27;3.13;;;0.90;;
48951;SDS011;34758;42.148;24.744;2023-03-08T14:13:58;3.42;;;1.10;;
48951;SDS011;34758;42.148;24.744;2023-03-08T14:16:28;3.57;;;1.33;;
48951;SDS011;34758;42.148;24.744;2023-03-08T14:18:59;3.42;;;0.98;;
48951;SDS011;34758;42.148;24.744;2023-03-08T14:21:36;3.38;;;1.02;;
48951;SDS011;34758;42.148;24.744;2023-03-08T14:24:05;1.67;;;1.10;;
48951;SDS011;34758;42.148;24.744;2023-03-08T14:26:35;1.10;;;0.73;;
48951;SDS011;34758;42.148;24.744;2023-03-08T14:29:15;1.83;;;1.10;;
48951;SDS011;34758;42.148;24.744;2023-03-08T14:31:57;2.83;;;1.17;;
48951;SDS011;34758;42.148;24.744;2023-03-08T14:34:26;3.38;;;1.40;;
48951;SDS011;34758;42.148;24.744;2023-03-08T14:36:58;5.00;;;1.45;;
48951;SDS011;34758;42.148;24.744;2023-03-08T14:39:33;3.38;;;1.20;;
48951;SDS011;34758;42.148;24.744;2023-03-08T14:42:08;2.88;;;1.35;;
48951;SDS011;34758;42.148;24.744;2023-03-08T14:44:37;4.90;;;1.10;;
48951;SDS011;34758;42.148;24.744;2023-03-08T14:47:07;2.28;;;0.95;;
48951;SDS011;34758;42.148;24.744;2023-03-08T14:49:37;4.18;;;1.70;;
48951;SDS011;34758;42.148;24.744;2023-03-08T14:52:04;8.93;;;2.17;;
48951;SDS011;34758;42.148;24.744;2023-03-08T14:54:46;4.32;;;1.20;;
48951;SDS011;34758;42.148;24.744;2023-03-08T14:57:15;4.30;;;1.25;;
48951;SDS011;34758;42.148;24.744;2023-03-08T14:59:44;4.82;;;1.38;;